Terminal Aerodrome Forecast
Issued by NWS

Home | Current Version | Previous Version | Text Only | Print | Product List | Glossary On
Versions: 1 2 3 4 5 6 7 8 9 10 11 12 13 14 15 16 17
000
FTUS42 KGSP 201100
TAFAND
TAF
KAND 201138Z 2012/2112 26003KT P6SM SCT100
     FM202000 25006KT P6SM SCT060
     FM202300 32004KT P6SM SCT060=

USA.gov is the U.S. government's official web portal to all federal, state and local government web resources and services.